Time;durP1;ratioP1;P1;durP2;ratioP2;P2;SDS_P1;SDS_P2;PMS_P1;PMS_P2;Temp;Humidity;BMP_temperature;BMP_pressure;BME280_temperature;BME280_humidity;BME280_pressure;Samples;Min_cycle;Max_cycle;Signal;HPM_P1;HPM_P2
2022/07/09 00:00:50;;;;;;;5.43;1.73;;;19.20;77.50;;;17.90;59.91;100592.06;10357336;28;97871;-83
2022/07/09 00:05:53;;;;;;;2.22;1.50;;;19.10;77.50;;;17.90;59.67;100604.69;10359344;28;96516;-83
2022/07/09 00:10:56;;;;;;;2.60;1.40;;;19.10;77.50;;;17.89;59.32;100598.50;10358834;28;96593;-83
2022/07/09 00:15:59;;;;;;;3.45;1.45;;;19.10;77.40;;;17.87;59.35;100597.03;10366417;28;96679;-86
2022/07/09 00:21:02;;;;;;;1.92;1.27;;;19.10;77.20;;;17.87;59.30;100600.56;10375621;28;96509;-83
2022/07/09 00:26:05;;;;;;;5.20;1.63;;;19.10;77.20;;;17.83;59.70;100601.19;10374351;28;96805;-84
2022/07/09 00:31:09;;;;;;;2.47;1.50;;;19.10;77.50;;;17.77;59.90;100596.63;10354212;28;98297;-83
2022/07/09 00:36:12;;;;;;;3.03;1.38;;;19.00;77.70;;;17.70;60.12;100587.69;10358002;28;96699;-84
2022/07/09 00:41:15;;;;;;;2.40;1.25;;;19.00;77.70;;;17.62;60.34;100594.06;10358555;28;97906;-83
2022/07/09 00:46:18;;;;;;;3.33;1.45;;;18.90;77.90;;;17.55;60.33;100591.38;10372568;28;97674;-83
2022/07/09 00:51:21;;;;;;;2.50;1.38;;;18.90;77.90;;;17.49;60.23;100591.38;10357506;28;96913;-84
2022/07/09 00:56:24;;;;;;;3.65;1.42;;;18.80;77.90;;;17.44;60.56;100599.19;10375674;28;96738;-84
2022/07/09 01:01:27;;;;;;;4.65;1.50;;;18.70;77.90;;;17.38;60.56;100582.84;10365746;28;97211;-83
2022/07/09 01:06:30;;;;;;;1.98;1.30;;;18.70;77.90;;;17.34;60.63;100578.94;10370113;28;97098;-82
2022/07/09 01:11:33;;;;;;;2.65;1.50;;;18.70;78.00;;;17.23;60.73;100565.28;10354971;28;96676;-84
2022/07/09 01:16:39;;;;;;;3.97;1.50;;;18.60;78.10;;;17.13;60.83;100569.16;10354341;28;97033;-82
2022/07/09 01:21:42;;;;;;;2.08;1.35;;;18.50;78.20;;;17.05;60.93;100568.53;10370804;28;97597;-83
2022/07/09 01:26:46;;;;;;;4.22;1.65;;;18.40;78.40;;;16.98;61.07;100567.69;10373063;28;96590;-83
2022/07/09 01:31:48;;;;;;;3.63;1.80;;;18.30;78.50;;;16.96;61.15;100564.34;10352282;28;98668;-83
2022/07/09 01:36:51;;;;;;;4.53;1.50;;;18.30;78.50;;;16.97;61.29;100568.69;10372643;28;97154;-83
2022/07/09 01:41:54;;;;;;;3.70;1.30;;;18.30;78.50;;;17.01;61.15;100561.88;10354989;28;97444;-83
2022/07/09 01:46:57;;;;;;;3.75;1.20;;;18.40;78.50;;;16.98;61.17;100559.63;10354097;28;96918;-83
2022/07/09 01:52:00;;;;;;;3.47;1.58;;;18.40;78.20;;;16.96;60.74;100554.44;10346724;28;97406;-83
2022/07/09 01:57:04;;;;;;;2.13;1.20;;;18.30;77.90;;;16.94;60.82;100553.00;10370827;28;97165;-83
2022/07/09 02:02:07;;;;;;;3.17;1.25;;;18.30;77.90;;;16.94;60.66;100558.34;10359213;28;97322;-83
2022/07/09 02:07:11;;;;;;;2.97;1.50;;;18.30;78.00;;;16.97;60.74;100549.88;10354817;28;96802;-83
2022/07/09 02:12:15;;;;;;;3.72;1.40;;;18.40;77.80;;;16.95;60.67;100551.94;10355185;28;96734;-83
2022/07/09 02:17:18;;;;;;;2.97;1.15;;;18.40;77.70;;;16.92;60.81;100558.56;10352204;28;97311;-83
2022/07/09 02:22:21;;;;;;;2.70;1.30;;;18.40;77.80;;;16.88;61.30;100562.66;10371674;28;96528;-83
2022/07/09 02:27:24;;;;;;;3.95;1.40;;;18.30;78.00;;;16.83;61.32;100549.00;10368771;28;96550;-83
2022/07/09 02:32:27;;;;;;;3.45;1.38;;;18.30;78.10;;;16.83;60.90;100565.94;10353648;28;97004;-83
2022/07/09 02:37:30;;;;;;;2.65;1.23;;;18.30;77.90;;;16.85;60.71;100557.69;10351386;28;96437;-83
2022/07/09 02:42:32;;;;;;;3.80;1.15;;;18.30;77.80;;;16.91;60.88;100559.56;10335890;28;97391;-83
2022/07/09 02:47:36;;;;;;;2.03;1.20;;;18.30;77.70;;;16.92;60.68;100558.56;10350899;28;97468;-83
2022/07/09 02:52:39;;;;;;;4.40;1.20;;;18.40;77.70;;;16.97;60.65;100561.47;10375040;28;96617;-83
2022/07/09 02:57:42;;;;;;;6.15;1.50;;;18.40;77.60;;;16.95;60.31;100560.84;10377744;28;96559;-82
2022/07/09 03:02:44;;;;;;;3.42;1.30;;;18.30;77.40;;;16.94;59.97;100553.81;10376576;28;96701;-83
2022/07/09 03:07:48;;;;;;;4.05;1.60;;;18.30;77.10;;;16.97;59.72;100548.06;10368780;28;98429;-83
2022/07/09 03:12:51;;;;;;;2.67;1.23;;;18.40;77.10;;;17.01;59.76;100559.19;10354815;28;96718;-83
2022/07/09 03:17:53;;;;;;;2.88;1.20;;;18.30;76.90;;;17.00;59.59;100550.31;10352348;28;96695;-83
2022/07/09 03:22:56;;;;;;;1.70;1.02;;;18.30;76.90;;;17.04;59.48;100559.63;10363157;28;96859;-83
2022/07/09 03:28:00;;;;;;;3.40;1.23;;;18.40;76.90;;;17.08;59.72;100560.06;10378454;28;96818;-84
2022/07/09 03:33:03;;;;;;;3.25;1.33;;;18.40;76.80;;;17.13;59.68;100554.91;10375168;28;97141;-84
2022/07/09 03:38:06;;;;;;;2.55;1.27;;;18.50;77.40;;;17.10;59.63;100571.44;10375865;28;98306;-83
2022/07/09 03:43:12;;;;;;;3.45;1.70;;;18.50;76.60;;;17.04;59.85;100566.88;10359549;28;97579;-84
2022/07/09 03:48:15;;;;;;;11.20;7.10;;;18.40;77.00;;;16.98;60.33;100560.44;10354996;28;96820;-83
2022/07/09 03:53:17;;;;;;;4.55;2.10;;;18.40;77.40;;;16.93;60.68;100562.91;10329156;28;97375;-83
2022/07/09 03:58:21;;;;;;;4.43;1.65;;;18.30;77.60;;;16.91;60.78;100569.47;10377105;28;96614;-83
2022/07/09 04:03:24;;;;;;;3.13;1.80;;;18.30;77.70;;;16.93;60.38;100575.50;10368906;28;98168;-83
2022/07/09 04:08:27;;;;;;;4.13;1.60;;;18.30;77.60;;;17.04;60.18;100588.34;10375599;28;97377;-83
2022/07/09 04:13:30;;;;;;;4.00;1.60;;;18.30;77.60;;;17.12;60.18;100577.44;10373728;28;96710;-83
2022/07/09 04:18:34;;;;;;;2.55;1.38;;;18.40;77.60;;;17.07;60.06;100579.88;10374968;28;97655;-84
2022/07/09 04:23:38;;;;;;;6.32;1.60;;;18.40;77.50;;;16.99;60.53;100580.06;10340047;28;96544;-83
2022/07/09 04:28:41;;;;;;;3.13;1.50;;;18.30;78.10;;;16.88;61.22;100577.94;10345824;28;96592;-83
2022/07/09 04:33:44;;;;;;;4.28;1.80;;;18.20;78.80;;;16.85;61.32;100579.16;10356360;28;96866;-83
2022/07/09 04:38:48;;;;;;;1.92;1.23;;;18.10;79.20;;;16.91;61.55;100574.84;10355453;28;97119;-84
2022/07/09 04:43:51;;;;;;;3.97;1.92;;;18.10;79.40;;;16.98;61.39;100584.59;10345256;28;96559;-83
2022/07/09 04:48:54;;;;;;;4.70;1.67;;;18.20;79.40;;;17.08;61.24;100576.16;10372305;28;96644;-84
2022/07/09 04:53:57;;;;;;;4.95;1.48;;;18.30;79.50;;;17.18;61.16;100573.09;10373425;28;96972;-83
2022/07/09 04:59:02;;;;;;;2.85;1.35;;;18.40;79.30;;;17.30;61.52;100574.16;10373350;28;96716;-82
2022/07/09 05:04:05;;;;;;;3.00;1.50;;;18.50;79.30;;;17.49;60.83;100568.00;10340731;28;97049;-83
2022/07/09 05:09:08;;;;;;;2.50;1.30;;;18.70;78.90;;;17.64;60.06;100575.91;10346733;28;96967;-84
2022/07/09 05:14:11;;;;;;;5.15;1.75;;;18.80;78.20;;;17.79;59.87;100565.81;10372288;28;96670;-83
2022/07/09 05:19:14;;;;;;;3.05;1.45;;;19.00;78.00;;;17.97;59.28;100577.81;10351451;28;97143;-83
2022/07/09 05:24:17;;;;;;;3.75;1.45;;;19.20;77.50;;;18.13;58.41;100572.84;10371931;28;96804;-83
2022/07/09 05:29:22;;;;;;;3.88;1.20;;;19.30;76.60;;;18.29;57.52;100573.44;10355569;28;96623;-83
2022/07/09 05:34:25;;;;;;;3.90;1.42;;;19.50;76.10;;;18.47;57.11;100570.91;10370674;28;96922;-83
2022/07/09 05:39:28;;;;;;;3.83;1.50;;;19.70;75.60;;;18.62;56.79;100566.13;10352377;28;96786;-83
2022/07/09 05:44:32;;;;;;;2.72;1.30;;;19.80;74.80;;;18.78;55.99;100570.25;10363449;28;96700;-85
2022/07/09 05:49:35;;;;;;;4.10;1.33;;;20.00;74.50;;;18.91;55.45;100564.81;10354076;28;96783;-84
2022/07/09 05:54:38;;;;;;;2.85;1.48;;;20.10;73.80;;;19.04;55.50;100560.41;10328953;28;97339;-84
2022/07/09 05:59:42;;;;;;;3.10;1.45;;;20.20;73.70;;;19.16;55.30;100572.97;10371044;28;96901;-84
2022/07/09 06:04:45;;;;;;;3.00;1.40;;;20.30;73.20;;;19.23;54.58;100563.00;10368895;28;98396;-84
2022/07/09 06:09:48;;;;;;;3.10;1.30;;;20.40;72.70;;;19.35;54.42;100568.53;10350382;28;98671;-86
2022/07/09 06:14:50;;;;;;;2.17;1.27;;;20.50;72.50;;;19.38;54.31;100568.09;10341773;28;97008;-84
2022/07/09 06:19:53;;;;;;;3.53;1.13;;;20.50;72.70;;;19.37;54.23;100574.53;10371128;28;96862;-86
2022/07/09 06:24:56;;;;;;;4.07;1.45;;;20.50;72.70;;;19.43;54.25;100562.91;10373222;28;98309;-85
2022/07/09 06:30:00;;;;;;;3.15;1.40;;;20.60;72.60;;;19.52;54.13;100561.56;10377799;28;97236;-85
2022/07/09 06:35:03;;;;;;;3.17;1.20;;;20.60;72.50;;;19.60;53.92;100557.81;10376400;28;98493;-85
2022/07/09 06:40:07;;;;;;;5.57;1.42;;;20.70;72.10;;;19.69;53.72;100566.47;10358719;28;96550;-85
2022/07/09 06:45:10;;;;;;;3.17;1.50;;;20.80;72.30;;;19.79;53.81;100556.00;10355688;28;96521;-84
2022/07/09 06:50:14;;;;;;;1.73;1.20;;;20.90;72.00;;;19.92;53.59;100566.72;10358154;28;97030;-85
2022/07/09 06:55:17;;;;;;;4.65;1.50;;;21.10;71.90;;;20.01;52.75;100553.75;10371318;28;96718;-87
2022/07/09 07:00:20;;;;;;;2.92;1.48;;;21.20;71.20;;;20.12;52.96;100560.31;10338324;28;97728;-85
2022/07/09 07:05:23;;;;;;;2.60;1.25;;;21.30;71.30;;;20.29;52.63;100556.00;10335321;28;97763;-85
2022/07/09 07:10:26;;;;;;;2.83;1.40;;;21.40;70.90;;;20.35;51.90;100560.50;10330869;28;98676;-85
2022/07/09 07:15:29;;;;;;;4.25;1.40;;;21.50;70.30;;;20.48;51.83;100546.91;10369705;28;96645;-85
2022/07/09 07:20:31;;;;;;;3.42;1.38;;;21.60;69.90;;;20.55;51.61;100554.91;10361170;28;96460;-84
2022/07/09 07:25:35;;;;;;;3.10;1.40;;;21.70;69.50;;;20.73;51.59;100556.78;10348911;28;98416;-84
2022/07/09 07:30:37;;;;;;;2.20;1.20;;;21.80;69.60;;;20.99;50.52;100550.22;10325822;28;98700;-84
2022/07/09 07:35:40;;;;;;;2.83;1.27;;;22.10;68.80;;;21.19;50.39;100545.41;10354326;28;98399;-84
2022/07/09 07:40:43;;;;;;;3.75;1.45;;;22.40;68.40;;;21.29;49.53;100548.41;10372503;28;98240;-84
2022/07/09 07:45:46;;;;;;;3.83;1.25;;;22.40;67.70;;;21.45;49.88;100544.22;10341480;28;97069;-83
2022/07/09 07:50:49;;;;;;;3.53;1.17;;;22.60;68.00;;;21.63;48.19;100543.31;10348188;28;96679;-82
2022/07/09 07:55:52;;;;;;;1.58;1.10;;;22.80;66.60;;;21.77;47.51;100535.81;10350977;28;97110;-83
2022/07/09 08:00:56;;;;;;;2.67;1.20;;;22.90;65.60;;;21.89;47.48;100542.91;10366806;28;96732;-82
2022/07/09 08:05:59;;;;;;;2.95;0.95;;;23.00;65.50;;;22.07;47.36;100536.56;10346578;28;98464;-83
2022/07/09 08:11:03;;;;;;;3.92;1.10;;;23.20;65.20;;;22.31;46.59;100525.72;10373671;28;97665;-86
2022/07/09 08:16:06;;;;;;;1.95;1.20;;;23.50;65.30;;;22.61;46.05;100531.81;10346328;28;97046;-84
2022/07/09 08:21:10;;;;;;;1.98;1.05;;;23.80;64.20;;;22.79;44.94;100521.84;10345072;28;97401;-85
2022/07/09 08:26:12;;;;;;;2.50;1.08;;;24.00;62.80;;;22.75;45.14;100521.53;10342163;28;98570;-84
2022/07/09 08:31:17;;;;;;;2.47;1.20;;;23.90;62.70;;;22.92;44.86;100518.94;10347016;28;97238;-86
2022/07/09 08:36:20;;;;;;;2.08;1.00;;;24.10;62.90;;;23.06;44.14;100509.44;10357247;28;96610;-84
2022/07/09 08:41:24;;;;;;;2.40;1.10;;;24.30;61.40;;;23.25;43.84;100515.47;10348081;28;97344;-86
2022/07/09 08:46:29;;;;;;;1.75;0.88;;;24.40;61.30;;;23.23;42.30;100498.63;10355294;28;98214;-85
2022/07/09 08:51:34;;;;;;;2.33;1.10;;;24.40;60.00;;;23.24;42.55;100508.41;10346293;28;98404;-84
2022/07/09 08:56:37;;;;;;;1.77;0.90;;;24.40;59.70;;;23.34;42.85;100499.63;10350867;28;96751;-85
2022/07/09 09:01:40;;;;;;;3.50;1.00;;;24.50;60.10;;;23.60;42.36;100485.41;10354519;28;97113;-84
2022/07/09 09:06:43;;;;;;;2.13;0.90;;;24.70;59.70;;;23.82;41.36;100487.44;10369637;28;97060;-86
2022/07/09 09:11:50;;;;;;;1.85;1.00;;;24.90;58.60;;;23.95;40.81;100482.47;10339738;28;97038;-85
2022/07/09 09:16:53;;;;;;;1.83;0.90;;;25.10;58.00;;;24.15;40.44;100481.94;10367051;28;98037;-85
2022/07/09 09:21:56;;;;;;;2.00;0.82;;;25.30;57.80;;;24.19;40.54;100474.94;10346451;28;96796;-87
2022/07/09 09:27:00;;;;;;;1.70;0.60;;;25.40;57.70;;;24.41;39.50;100468.72;10319995;28;96715;-87
2022/07/09 09:32:10;;;;;;;4.10;1.17;;;25.60;57.00;;;24.56;39.27;100464.28;10364185;28;96687;-86
2022/07/09 09:37:24;;;;;;;3.20;1.20;;;25.70;55.90;;;24.48;38.57;100463.94;10354790;28;96697;-84
2022/07/09 09:42:28;;;;;;;1.65;0.90;;;25.60;55.40;;;24.41;38.62;100446.97;10355717;28;97022;-88
2022/07/09 09:47:32;;;;;;;2.45;0.90;;;25.60;55.60;;;24.47;38.01;100456.81;10353218;28;96770;-89
2022/07/09 09:52:37;;;;;;;2.80;1.13;;;25.60;54.90;;;24.56;38.62;100445.28;10303519;28;96573;-89
2022/07/09 09:57:41;;;;;;;2.42;0.80;;;25.60;55.50;;;24.72;37.57;100448.19;10369211;28;97072;-89
2022/07/09 10:02:47;;;;;;;2.90;0.85;;;25.80;54.30;;;24.98;36.90;100454.69;10370998;28;96471;-89
2022/07/09 10:07:50;;;;;;;2.67;0.95;;;26.00;53.90;;;25.14;35.83;100434.75;10334457;28;98460;-91
2022/07/09 10:12:53;;;;;;;1.73;0.75;;;26.20;52.50;;;25.29;35.20;100431.34;10370972;28;96989;-87
2022/07/09 10:17:56;;;;;;;2.78;1.25;;;26.40;52.30;;;25.38;35.85;100445.31;10353549;28;96728;-86
2022/07/09 10:23:00;;;;;;;3.10;0.98;;;26.50;52.20;;;25.48;35.38;100426.31;10336577;28;96757;-87
2022/07/09 10:28:14;;;;;;;2.35;1.10;;;26.60;52.00;;;25.57;34.86;100422.03;10354351;28;97443;-88
2022/07/09 10:33:31;;;;;;;2.90;0.90;;;26.70;51.50;;;25.60;34.40;100414.16;10350944;28;98696;-86
2022/07/09 10:38:38;;;;;;;4.25;1.10;;;26.70;51.20;;;25.63;34.66;100399.22;10352717;28;97316;-86
2022/07/09 10:43:49;;;;;;;3.38;1.17;;;26.70;51.20;;;25.56;34.37;100404.09;10370721;28;98124;-87
2022/07/09 10:48:52;;;;;;;3.10;0.68;;;26.70;50.50;;;25.35;34.01;100398.47;10367181;28;96568;-87
2022/07/09 10:53:54;;;;;;;2.92;0.98;;;26.50;50.00;;;25.52;33.79;100397.50;10315989;28;96827;-87
2022/07/09 10:58:57;;;;;;;2.70;0.90;;;26.60;49.90;;;25.57;33.33;100392.94;10360991;28;97354;-87
2022/07/09 11:04:00;;;;;;;2.47;0.90;;;26.70;49.70;;;25.56;32.88;100385.84;10331341;28;97515;-88
2022/07/09 11:09:13;;;;;;;1.60;0.82;;;26.70;49.20;;;25.69;32.11;100387.28;10356164;28;96618;-87
2022/07/09 11:14:16;;;;;;;5.65;1.45;;;26.80;48.30;;;25.89;32.15;100381.97;10363673;28;97343;-90
2022/07/09 11:19:19;;;;;;;2.90;1.08;;;26.90;48.20;;;26.08;31.08;100384.22;10355631;28;96638;-92
2022/07/09 11:24:23;;;;;;;1.92;0.88;;;27.10;47.00;;;26.27;31.66;100355.47;10361239;28;96672;-90
2022/07/09 11:29:26;;;;;;;2.05;0.80;;;27.30;48.10;;;26.55;29.91;100353.34;10370389;28;96763;-88
2022/07/09 11:34:29;;;;;;;3.05;1.20;;;27.60;46.30;;;26.68;29.27;100344.66;10344431;28;97332;-88
2022/07/09 11:39:36;;;;;;;2.92;1.10;;;27.80;45.50;;;26.76;29.64;100333.22;10357104;28;96787;-87
2022/07/09 11:44:38;;;;;;;2.33;0.90;;;27.80;45.60;;;26.80;29.06;100326.13;10348776;28;97540;-89
2022/07/09 11:49:44;;;;;;;6.40;0.93;;;27.90;44.20;;;26.34;28.94;100317.88;10358642;28;98280;-89
2022/07/09 11:55:04;;;;;;;2.70;0.90;;;27.50;44.80;;;26.47;29.46;100315.75;10346957;28;96971;-87
2022/07/09 12:00:20;;;;;;;1.95;0.85;;;27.40;45.60;;;26.77;29.46;100304.88;10346168;28;98595;-86
2022/07/09 12:05:30;;;;;;;2.55;0.77;;;27.70;45.80;;;27.04;28.21;100301.03;10360383;28;96568;-87
2022/07/09 12:10:39;;;;;;;2.78;0.75;;;28.10;44.50;;;27.17;28.94;100290.44;10336066;28;98319;-88
2022/07/09 12:15:42;;;;;;;1.75;0.60;;;28.20;44.90;;;27.43;29.30;100288.44;10336513;28;96689;-87
2022/07/09 12:20:45;;;;;;;3.05;0.80;;;28.50;45.20;;;27.67;28.99;100276.91;10375037;28;96481;-86
2022/07/09 12:25:48;;;;;;;3.13;0.70;;;28.70;44.90;;;27.75;29.02;100270.88;10373424;28;97194;-87
2022/07/09 12:30:51;;;;;;;2.60;0.90;;;28.90;44.90;;;27.89;28.82;100266.47;10374034;28;96594;-86
2022/07/09 12:35:54;;;;;;;2.38;0.80;;;29.10;44.80;;;27.69;28.83;100256.44;10355353;28;96767;-87
2022/07/09 12:40:57;;;;;;;2.67;0.70;;;28.90;44.50;;;27.91;29.45;100255.25;10373520;28;96672;-87
2022/07/09 12:46:00;;;;;;;2.38;0.80;;;29.00;45.20;;;28.08;29.34;100255.69;10362655;28;96716;-87
2022/07/09 12:51:03;;;;;;;3.15;0.70;;;29.10;45.60;;;28.15;28.45;100241.72;10369480;28;96625;-88
2022/07/09 12:56:07;;;;;;;1.67;0.50;;;29.20;44.70;;;28.00;28.76;100242.63;10358436;28;96818;-88
2022/07/09 13:01:10;;;;;;;2.53;0.70;;;29.00;44.90;;;28.02;29.40;100234.97;10355363;28;97058;-88
2022/07/09 13:06:31;;;;;;;1.48;0.60;;;29.00;45.50;;;27.92;28.90;100237.75;10374962;28;97599;-88
2022/07/09 13:11:35;;;;;;;4.00;0.68;;;28.80;45.10;;;27.72;28.36;100238.69;10336034;28;97253;-87
2022/07/09 13:16:38;;;;;;;1.27;0.60;;;28.70;44.50;;;27.53;28.84;100234.91;10362910;28;97332;-89
2022/07/09 13:21:41;;;;;;;3.45;0.50;;;28.50;45.10;;;27.45;29.00;100226.22;10354938;28;96940;-87
2022/07/09 13:26:44;;;;;;;1.38;0.40;;;28.50;44.90;;;27.46;28.81;100236.03;10356578;28;96567;-88
2022/07/09 13:31:47;;;;;;;1.33;0.57;;;28.50;44.50;;;27.52;28.49;100222.34;10369369;28;96704;-91
2022/07/09 13:36:50;;;;;;;2.65;0.50;;;28.50;44.40;;;27.62;28.86;100214.13;10339110;28;96732;-87
2022/07/09 13:41:53;;;;;;;1.58;0.50;;;28.70;44.60;;;27.48;27.73;100217.47;10371358;28;96588;-86
2022/07/09 13:46:56;;;;;;;123.53;12.18;;;28.60;43.50;;;27.50;28.69;100209.00;10337858;28;97105;-86
2022/07/09 13:51:58;;;;;;;2.20;0.30;;;28.50;44.30;;;27.78;28.42;100201.25;10333444;28;97096;-87
2022/07/09 13:57:02;;;;;;;2.30;0.30;;;28.80;44.40;;;28.04;28.29;100201.91;10351672;28;96711;-88
2022/07/09 14:02:05;;;;;;;1.50;0.52;;;29.10;44.00;;;27.83;28.15;100206.66;10352501;28;96821;-89
2022/07/09 14:07:09;;;;;;;0.68;0.32;;;29.00;43.30;;;27.73;28.00;100202.09;10333438;28;96813;-88
2022/07/09 14:12:12;;;;;;;1.30;0.28;;;28.80;43.40;;;27.85;27.78;100199.03;10372873;28;96682;-92
2022/07/09 14:17:15;;;;;;;1.33;0.50;;;28.90;43.50;;;27.87;26.84;100196.81;10352316;28;96651;-87
2022/07/09 14:22:19;;;;;;;1.27;0.40;;;28.90;42.70;;;27.95;27.54;100188.06;10371080;28;98419;-88
2022/07/09 14:27:21;;;;;;;0.55;0.40;;;29.00;43.10;;;28.12;27.69;100176.72;10355264;28;96599;-87
2022/07/09 14:32:24;;;;;;;2.38;0.30;;;29.10;43.00;;;28.26;26.59;100183.19;10354090;28;96659;-88
2022/07/09 14:37:28;;;;;;;0.82;0.40;;;29.30;42.50;;;28.32;26.86;100181.25;10345494;28;97676;-89
2022/07/09 14:42:31;;;;;;;0.70;0.40;;;29.30;42.70;;;28.26;25.97;100188.63;10343549;28;97398;-88
2022/07/09 14:47:35;;;;;;;2.58;0.45;;;29.20;41.80;;;27.96;26.17;100168.66;10351309;28;98744;-87
2022/07/09 14:52:38;;;;;;;1.83;0.52;;;28.90;41.40;;;27.73;26.05;100174.81;10360050;28;97351;-89
2022/07/09 14:57:42;;;;;;;1.00;0.55;;;28.70;41.70;;;27.59;26.07;100174.59;10351945;28;98178;-91
2022/07/09 15:02:45;;;;;;;1.08;0.40;;;28.50;41.60;;;27.71;26.52;100172.34;10374937;28;96865;-89
2022/07/09 15:07:48;;;;;;;1.15;0.50;;;28.60;42.10;;;27.66;26.40;100166.06;10350533;28;96475;-86
2022/07/09 15:12:51;;;;;;;1.67;0.50;;;28.60;41.70;;;27.60;26.15;100159.03;10359567;28;96903;-85
2022/07/09 15:17:54;;;;;;;0.50;0.30;;;28.50;41.50;;;27.71;26.66;100163.34;10341619;28;96807;-84
2022/07/09 15:22:58;;;;;;;2.38;0.57;;;28.50;42.20;;;27.91;26.15;100160.47;10376785;28;96850;-86
2022/07/09 15:28:01;;;;;;;1.85;0.70;;;28.70;41.60;;;27.82;25.89;100145.78;10372698;28;96908;-86
2022/07/09 15:33:04;;;;;;;1.70;0.70;;;28.70;41.50;;;27.77;25.48;100153.19;10374637;28;96654;-85
2022/07/09 15:38:08;;;;;;;1.13;0.50;;;28.60;41.10;;;27.59;25.97;100150.00;10357820;28;96601;-84
2022/07/09 15:43:11;;;;;;;1.77;0.90;;;28.50;40.90;;;27.57;25.90;100151.38;10375930;28;97232;-84
2022/07/09 15:48:14;;;;;;;0.85;0.68;;;28.50;41.20;;;27.62;25.86;100156.81;10374977;28;97021;-86
2022/07/09 15:53:17;;;;;;;0.95;0.60;;;28.50;41.20;;;27.52;25.51;100140.47;10359623;28;97091;-84
2022/07/09 15:58:20;;;;;;;3.72;0.57;;;28.50;40.40;;;27.44;25.53;100139.16;10372892;28;98150;-84
2022/07/09 16:03:23;;;;;;;1.83;1.00;;;28.40;40.60;;;27.39;25.24;100131.00;10345331;28;96704;-85
2022/07/09 16:08:27;;;;;;;1.92;0.63;;;28.30;40.20;;;27.29;25.14;100136.50;10376314;28;96989;-84
2022/07/09 16:13:29;;;;;;;4.32;0.80;;;28.20;40.20;;;27.21;25.59;100129.72;10375393;28;96960;-85
2022/07/09 16:18:33;;;;;;;1.02;0.70;;;28.10;40.30;;;27.06;25.27;100129.81;10343676;28;98431;-84
2022/07/09 16:23:36;;;;;;;1.70;0.73;;;28.00;40.20;;;27.00;25.43;100125.44;10332099;28;97076;-85
2022/07/09 16:28:39;;;;;;;1.92;0.77;;;28.00;40.10;;;27.10;25.49;100130.84;10323028;28;96539;-87
2022/07/09 16:33:46;;;;;;;2.47;0.55;;;28.10;40.30;;;27.24;25.61;100134.63;10376057;28;97246;-85
2022/07/09 16:38:49;;;;;;;2.50;0.73;;;28.30;40.30;;;27.20;25.07;100125.38;10375197;28;97298;-84
2022/07/09 16:43:52;;;;;;;4.97;0.60;;;28.30;40.50;;;27.04;25.24;100131.94;10375688;28;96606;-87
2022/07/09 16:48:54;;;;;;;1.63;0.70;;;28.10;39.70;;;26.89;25.65;100132.81;10339948;28;97272;-85
2022/07/09 16:53:57;;;;;;;5.10;0.88;;;27.90;40.10;;;26.88;25.87;100125.75;10375153;28;96792;-86
2022/07/09 16:59:06;;;;;;;;;;;27.90;40.30;;;27.04;25.66;100135.47;10358720;28;96887;-87
2022/07/09 17:04:12;;;;;;;2.17;0.60;;;28.10;40.10;;;26.93;25.02;100118.38;10324864;28;96509;-86
2022/07/09 17:09:15;;;;;;;1.60;0.77;;;28.10;40.00;;;26.80;25.34;100129.84;10342234;28;96993;-86
2022/07/09 17:14:18;;;;;;;1.05;0.60;;;27.90;40.00;;;26.69;25.42;100120.06;10366941;28;97271;-87
2022/07/09 17:19:21;;;;;;;4.13;0.73;;;27.80;40.00;;;26.59;25.50;100114.63;10357393;28;96986;-84
2022/07/09 17:24:24;;;;;;;0.85;0.60;;;27.70;40.10;;;26.47;25.14;100119.56;10348670;28;97985;-85
2022/07/09 17:29:27;;;;;;;1.33;0.80;;;27.60;39.70;;;26.30;24.85;100119.81;10355250;28;96727;-85
2022/07/09 17:34:30;;;;;;;0.57;0.35;;;27.50;39.20;;;26.05;24.31;100118.75;10374405;28;96566;-88
2022/07/09 17:39:33;;;;;;;3.22;0.60;;;27.30;38.70;;;25.81;24.65;100125.81;10340505;28;96585;-85
2022/07/09 17:44:36;;;;;;;2.05;0.70;;;27.00;38.90;;;25.59;25.03;100131.44;10339541;28;96808;-85
2022/07/09 17:49:39;;;;;;;1.48;0.70;;;26.80;39.20;;;25.30;25.35;100125.63;10370689;28;97028;-86
2022/07/09 17:54:46;;;;;;;1.35;0.57;;;26.50;39.50;;;24.98;25.93;100118.41;10356901;28;96790;-86
2022/07/09 17:59:49;;;;;;;2.75;0.88;;;26.20;39.80;;;24.65;26.47;100116.91;10368327;28;96714;-85
2022/07/09 18:04:52;;;;;;;1.38;0.90;;;25.80;40.30;;;24.42;27.21;100128.97;10354180;28;97003;-85
2022/07/09 18:09:57;;;;;;;4.78;1.33;;;25.60;40.80;;;24.18;27.65;100128.47;10371629;28;96606;-85
2022/07/09 18:15:00;;;;;;;1.40;0.70;;;25.40;41.20;;;23.98;28.02;100125.56;10348707;28;96725;-85
2022/07/09 18:20:05;;;;;;;1.40;0.70;;;25.20;41.70;;;23.72;28.74;100125.34;10370762;28;97521;-85
2022/07/09 18:25:09;;;;;;;1.38;0.65;;;24.90;42.00;;;23.50;29.27;100129.97;10344870;28;98207;-85
2022/07/09 18:30:12;;;;;;;3.50;0.85;;;24.70;42.40;;;23.29;29.68;100131.63;10370011;28;97120;-86
2022/07/09 18:35:16;;;;;;;2.95;0.75;;;24.50;43.00;;;23.06;30.01;100134.59;10370920;28;98303;-85
2022/07/09 18:40:19;;;;;;;1.55;0.75;;;24.30;43.40;;;22.82;30.73;100147.53;10347819;28;96401;-85
2022/07/09 18:45:22;;;;;;;6.38;1.10;;;24.10;43.80;;;22.61;31.51;100143.69;10365772;28;96670;-85
2022/07/09 18:50:25;;;;;;;2.92;0.90;;;23.90;44.20;;;22.35;31.58;100142.47;10328002;28;96805;-85
2022/07/09 18:55:29;;;;;;;6.45;1.10;;;23.60;44.60;;;22.10;32.13;100151.81;10335102;28;96684;-85
2022/07/09 19:00:33;;;;;;;8.40;1.27;;;23.40;45.20;;;21.89;32.79;100150.63;10336248;28;97181;-85
2022/07/09 19:05:36;;;;;;;5.53;1.33;;;23.20;45.70;;;21.73;33.24;100156.00;10336140;28;96635;-85
2022/07/09 19:10:39;;;;;;;6.47;1.45;;;23.00;46.00;;;21.52;33.45;100150.19;10337786;28;96502;-85
2022/07/09 19:15:42;;;;;;;3.90;1.23;;;22.80;46.40;;;21.34;33.96;100155.78;10330507;28;97392;-85
2022/07/09 19:20:45;;;;;;;2.30;0.68;;;22.60;46.80;;;21.21;34.10;100166.81;10336246;28;96569;-85
2022/07/09 19:25:48;;;;;;;2.50;0.57;;;22.40;47.00;;;21.11;34.34;100159.31;10334448;28;96565;-85
2022/07/09 19:36:13;;;;;;;3.63;1.48;;;22.30;47.40;;;20.87;34.96;100168.50;10318036;28;97419;-85
2022/07/09 19:41:16;;;;;;;2.30;0.75;;;22.10;47.60;;;20.68;35.41;100170.50;10322403;28;96649;-85
2022/07/09 19:46:20;;;;;;;2.30;0.80;;;21.90;48.10;;;20.50;35.99;100180.38;10322543;28;97054;-85
2022/07/09 19:51:23;;;;;;;3.97;0.70;;;21.70;48.70;;;20.35;36.10;100181.84;10298078;28;96758;-84
2022/07/09 19:56:27;;;;;;;2.25;0.70;;;21.50;49.10;;;20.23;36.66;100182.66;10330659;28;96658;-85
2022/07/09 20:01:35;;;;;;;1.33;0.77;;;21.40;49.50;;;20.08;37.41;100187.66;10349733;28;96489;-85
2022/07/09 20:06:39;;;;;;;1.35;0.90;;;21.30;50.00;;;19.95;37.43;100180.56;10312030;28;96966;-85
2022/07/09 20:11:42;;;;;;;2.65;0.73;;;21.10;50.40;;;19.95;37.94;100179.75;10333387;28;96629;-85
2022/07/09 20:16:45;;;;;;;1.27;0.70;;;21.10;50.90;;;20.03;38.10;100172.19;10349948;28;96640;-84
2022/07/09 20:21:48;;;;;;;2.45;0.70;;;21.10;51.00;;;20.17;38.69;100172.78;10326664;28;98148;-87
2022/07/09 20:26:51;;;;;;;2.67;0.75;;;21.20;51.30;;;20.30;38.21;100160.97;10341645;28;96813;-85
2022/07/09 20:31:54;;;;;;;1.70;0.60;;;21.40;51.60;;;20.52;38.40;100161.25;10305350;28;96709;-86
2022/07/09 20:36:59;;;;;;;1.17;0.75;;;21.50;51.60;;;20.74;38.39;100150.69;10319170;28;96525;-87
2022/07/09 20:42:02;;;;;;;1.35;0.80;;;21.80;51.60;;;20.96;38.57;100154.41;10330215;28;97267;-86
2022/07/09 20:47:05;;;;;;;0.75;0.50;;;22.00;51.60;;;21.09;38.63;100151.44;10351034;28;96826;-86
2022/07/09 20:52:14;;;;;;;3.42;0.75;;;22.20;51.80;;;21.21;38.45;100146.03;10358719;28;96784;-85